Terminal Aerodrome Forecast
Issued by NWS

Home | Current Version | Previous Version | Text Only | Print | Product List | Glossary On
Versions: 1 2 3 4 5 6 7 8 9 10 11 12 13 14 15 16 17 18
000
FTUS43 KOAX 242320
TAFSNY
TAF
KSNY 242320Z 2500/2524 12012G20KT P6SM VCTS SCT100CB SCT200
      TEMPO 2500/2503 VRB20G40KT 4SM TSRA BKN070CB
     FM250300 12008KT P6SM SKC
     FM251000 16005KT 5SM BR SCT005
     FM251500 16015G25KT P6SM SCT250
     FM252100 16018G28KT P6SM VCTS SCT070CB BKN250=

USA.gov is the U.S. government's official web portal to all federal, state and local government web resources and services.